Time;durP1;ratioP1;P1;durP2;ratioP2;P2;SDS_P1;SDS_P2;PMS_P1;PMS_P2;Temp;Humidity;BMP_temperature;BMP_pressure;BME280_temperature;BME280_humidity;BME280_pressure;Samples;Min_cycle;Max_cycle;Signal;HPM_P1;HPM_P2
2023/05/24 00:01:47;;;;;;;8.45;4.68;;;;;;;;;;5042605;28;20035;-60
2023/05/24 00:04:14;;;;;;;6.88;4.53;;;;;;;;;;5038440;28;20049;-59
2023/05/24 00:06:41;;;;;;;8.85;4.53;;;;;;;;;;5025076;28;20517;-59
2023/05/24 00:09:07;;;;;;;7.47;4.47;;;;;;;;;;5040974;28;20068;-59
2023/05/24 00:11:34;;;;;;;7.18;4.22;;;;;;;;;;5018695;28;20691;-59
2023/05/24 00:14:00;;;;;;;5.80;4.03;;;;;;;;;;5019927;28;20049;-58
2023/05/24 00:16:26;;;;;;;5.40;4.00;;;;;;;;;;5035837;28;20048;-59
2023/05/24 00:18:53;;;;;;;6.55;4.05;;;;;;;;;;5025310;28;20037;-59
2023/05/24 00:21:19;;;;;;;5.90;4.07;;;;;;;;;;5029950;28;20399;-59
2023/05/24 00:23:46;;;;;;;7.53;4.75;;;;;;;;;;5033054;28;20260;-58
2023/05/24 00:26:12;;;;;;;9.23;4.65;;;;;;;;;;5040227;28;20427;-58
2023/05/24 00:28:42;;;;;;;7.53;4.78;;;;;;;;;;5019301;28;20037;-58
2023/05/24 00:31:09;;;;;;;8.07;4.35;;;;;;;;;;5020171;28;20389;-59
2023/05/24 00:33:35;;;;;;;6.93;4.30;;;;;;;;;;5039066;28;20053;-59
2023/05/24 00:36:01;;;;;;;6.57;4.28;;;;;;;;;;5044102;28;20491;-59
2023/05/24 00:38:27;;;;;;;6.82;4.88;;;;;;;;;;5036221;28;20052;-59
2023/05/24 00:40:59;;;;;;;7.30;4.60;;;;;;;;;;5011593;28;20385;-59
2023/05/24 00:43:26;;;;;;;7.95;4.53;;;;;;;;;;5030035;28;20038;-58
2023/05/24 00:46:10;;;;;;;9.07;4.63;;;;;;;;;;5032991;28;20048;-58
2023/05/24 00:48:36;;;;;;;6.63;4.43;;;;;;;;;;5039081;28;20263;-59
2023/05/24 00:51:03;;;;;;;11.25;4.78;;;;;;;;;;5015155;28;20041;-58
2023/05/24 00:53:30;;;;;;;6.55;4.80;;;;;;;;;;5023333;28;20400;-59
2023/05/24 00:55:58;;;;;;;9.82;5.45;;;;;;;;;;5024466;28;20391;-58
2023/05/24 00:58:29;;;;;;;9.73;5.38;;;;;;;;;;5034693;28;20072;-58
2023/05/24 01:01:00;;;;;;;7.25;4.57;;;;;;;;;;5037689;28;20376;-59
2023/05/24 01:03:30;;;;;;;7.10;4.88;;;;;;;;;;5033053;28;20030;-58
2023/05/24 01:06:05;;;;;;;6.10;4.38;;;;;;;;;;5028076;28;20029;-59
2023/05/24 01:08:41;;;;;;;6.65;4.50;;;;;;;;;;5033623;28;20037;-58
2023/05/24 01:11:26;;;;;;;7.35;4.22;;;;;;;;;;5033910;28;20049;-60
2023/05/24 01:14:05;;;;;;;7.32;4.43;;;;;;;;;;5021660;28;20037;-60
2023/05/24 01:16:52;;;;;;;7.18;4.90;;;;;;;;;;5035592;28;20056;-60
2023/05/24 01:19:24;;;;;;;6.63;4.72;;;;;;;;;;5030424;28;20036;-60
2023/05/24 01:22:02;;;;;;;7.57;4.70;;;;;;;;;;5038530;28;20199;-60
2023/05/24 01:24:50;;;;;;;6.22;4.50;;;;;;;;;;5019894;28;20042;-60
2023/05/24 01:27:16;;;;;;;8.27;4.32;;;;;;;;;;5034980;28;20060;-59
2023/05/24 01:29:43;;;;;;;7.57;4.82;;;;;;;;;;5029355;28;20045;-59
2023/05/24 01:32:09;;;;;;;6.97;4.85;;;;;;;;;;5028881;28;20045;-59
2023/05/24 01:34:35;;;;;;;6.97;4.90;;;;;;;;;;5030246;28;20078;-59
2023/05/24 01:37:01;;;;;;;8.48;4.22;;;;;;;;;;5023804;28;20036;-59
2023/05/24 01:39:28;;;;;;;7.05;4.30;;;;;;;;;;5042152;28;20047;-60
2023/05/24 01:42:24;;;;;;;8.25;5.00;;;;;;;;;;5037947;28;20068;-59
2023/05/24 01:44:56;;;;;;;9.85;5.20;;;;;;;;;;5015491;28;20060;-60
2023/05/24 01:47:44;;;;;;;8.45;4.70;;;;;;;;;;5040560;28;20501;-59
2023/05/24 01:50:15;;;;;;;10.50;4.78;;;;;;;;;;5039751;28;20029;-59
2023/05/24 01:52:44;;;;;;;7.57;4.88;;;;;;;;;;5024938;28;20044;-60
2023/05/24 01:55:14;;;;;;;8.40;4.88;;;;;;;;;;5028646;28;20049;-60
2023/05/24 01:57:42;;;;;;;8.30;5.00;;;;;;;;;;5035456;28;20571;-59
2023/05/24 02:00:13;;;;;;;8.27;5.43;;;;;;;;;;5020150;28;20518;-59
2023/05/24 02:02:40;;;;;;;8.98;4.93;;;;;;;;;;5042945;28;20036;-59
2023/05/24 02:05:07;;;;;;;11.82;5.45;;;;;;;;;;5030767;28;20029;-59
2023/05/24 02:07:34;;;;;;;8.70;4.60;;;;;;;;;;5022262;28;20033;-59
2023/05/24 02:10:01;;;;;;;9.15;5.22;;;;;;;;;;5037125;28;20037;-60
2023/05/24 02:12:27;;;;;;;10.00;5.18;;;;;;;;;;5019798;28;20561;-59
2023/05/24 02:14:56;;;;;;;7.68;4.70;;;;;;;;;;5027597;28;20033;-60
2023/05/24 02:17:24;;;;;;;10.32;4.90;;;;;;;;;;5028930;28;20040;-59
2023/05/24 02:19:50;;;;;;;7.40;4.45;;;;;;;;;;5035193;28;20049;-59
2023/05/24 02:22:17;;;;;;;7.50;4.60;;;;;;;;;;5018825;28;20036;-59
2023/05/24 02:24:43;;;;;;;9.35;4.95;;;;;;;;;;5012111;28;20044;-59
2023/05/24 02:27:09;;;;;;;8.43;4.75;;;;;;;;;;5005358;28;20048;-59
2023/05/24 02:29:36;;;;;;;7.95;4.47;;;;;;;;;;5029460;28;20029;-59
2023/05/24 02:32:02;;;;;;;10.50;4.63;;;;;;;;;;5006196;28;20044;-60
2023/05/24 02:34:29;;;;;;;9.13;4.72;;;;;;;;;;5014336;28;20036;-59
2023/05/24 02:36:55;;;;;;;8.73;4.30;;;;;;;;;;5020413;28;20032;-60
2023/05/24 02:39:21;;;;;;;5.93;4.35;;;;;;;;;;5009657;28;20037;-59
2023/05/24 02:41:47;;;;;;;9.95;4.30;;;;;;;;;;5013379;28;20034;-60
2023/05/24 02:44:14;;;;;;;9.43;4.20;;;;;;;;;;5010924;28;20049;-59
2023/05/24 02:46:40;;;;;;;7.05;4.00;;;;;;;;;;5028522;28;20034;-59
2023/05/24 02:49:06;;;;;;;7.47;4.20;;;;;;;;;;5017062;28;20036;-59
2023/05/24 02:51:32;;;;;;;6.38;3.95;;;;;;;;;;5032147;28;20032;-59
2023/05/24 02:53:59;;;;;;;8.77;4.20;;;;;;;;;;5040117;28;20533;-60
2023/05/24 02:56:28;;;;;;;8.15;4.32;;;;;;;;;;5023720;28;20042;-59
2023/05/24 02:58:55;;;;;;;7.40;4.10;;;;;;;;;;5021667;28;20509;-59
2023/05/24 03:01:22;;;;;;;7.75;4.18;;;;;;;;;;5036500;28;20509;-59
2023/05/24 03:03:50;;;;;;;9.98;4.57;;;;;;;;;;5025863;28;20045;-59
2023/05/24 03:06:16;;;;;;;8.15;4.43;;;;;;;;;;5042128;28;20033;-59
2023/05/24 03:08:42;;;;;;;9.90;4.22;;;;;;;;;;5038471;28;20037;-59
2023/05/24 03:11:08;;;;;;;9.07;4.57;;;;;;;;;;5025991;28;20037;-59
2023/05/24 03:13:34;;;;;;;10.45;4.45;;;;;;;;;;5017775;28;20415;-59
2023/05/24 03:16:01;;;;;;;7.05;4.20;;;;;;;;;;5040608;28;20049;-59
2023/05/24 03:18:29;;;;;;;8.80;4.10;;;;;;;;;;5011344;28;20037;-59
2023/05/24 03:20:55;;;;;;;6.82;4.15;;;;;;;;;;5035022;28;20052;-59
2023/05/24 03:23:21;;;;;;;6.35;3.80;;;;;;;;;;5013624;28;20415;-59
2023/05/24 03:25:48;;;;;;;8.82;4.07;;;;;;;;;;5028481;28;20042;-59
2023/05/24 03:28:14;;;;;;;10.00;4.45;;;;;;;;;;5037625;28;20061;-59
2023/05/24 03:30:42;;;;;;;10.27;3.90;;;;;;;;;;5017387;28;20041;-60
2023/05/24 03:33:08;;;;;;;8.93;4.38;;;;;;;;;;5040104;28;20097;-59
2023/05/24 03:35:35;;;;;;;6.78;4.25;;;;;;;;;;5027253;28;20049;-59
2023/05/24 03:38:01;;;;;;;7.45;4.50;;;;;;;;;;5040973;28;20049;-59
2023/05/24 03:40:31;;;;;;;10.20;4.65;;;;;;;;;;5022357;28;20030;-59
2023/05/24 03:43:02;;;;;;;9.07;4.30;;;;;;;;;;5030931;28;20454;-59
2023/05/24 03:45:48;;;;;;;8.95;4.22;;;;;;;;;;5038677;28;20041;-59
2023/05/24 03:48:14;;;;;;;11.57;4.35;;;;;;;;;;5033810;28;20053;-59
2023/05/24 03:50:41;;;;;;;14.20;5.38;;;;;;;;;;5014651;28;20045;-59
2023/05/24 03:53:07;;;;;;;11.05;4.47;;;;;;;;;;5029788;28;20049;-59
2023/05/24 03:55:33;;;;;;;9.75;4.00;;;;;;;;;;5023680;28;20041;-59
2023/05/24 03:58:00;;;;;;;7.50;4.45;;;;;;;;;;5033903;28;20056;-59
2023/05/24 04:00:27;;;;;;;12.00;4.85;;;;;;;;;;5004764;28;20048;-59
2023/05/24 04:02:54;;;;;;;10.95;4.43;;;;;;;;;;5032079;28;20034;-59
2023/05/24 04:05:25;;;;;;;9.00;4.45;;;;;;;;;;5034645;28;20060;-59
2023/05/24 04:07:53;;;;;;;9.30;4.70;;;;;;;;;;5017281;28;20037;-58
2023/05/24 04:10:19;;;;;;;10.77;4.50;;;;;;;;;;5034412;28;20037;-59
2023/05/24 04:12:45;;;;;;;16.30;4.78;;;;;;;;;;5031132;28;20041;-59
2023/05/24 04:15:14;;;;;;;10.65;4.78;;;;;;;;;;5017382;28;20044;-59
2023/05/24 04:17:42;;;;;;;9.17;4.73;;;;;;;;;;5025472;28;20045;-59
2023/05/24 04:20:12;;;;;;;8.63;4.30;;;;;;;;;;5023038;28;20498;-59
2023/05/24 04:22:39;;;;;;;12.82;4.70;;;;;;;;;;5032726;28;20056;-58
2023/05/24 04:25:08;;;;;;;13.68;5.07;;;;;;;;;;5008881;28;20033;-60
2023/05/24 04:27:35;;;;;;;15.23;5.00;;;;;;;;;;5045730;28;20052;-59
2023/05/24 04:30:02;;;;;;;11.00;4.78;;;;;;;;;;5029976;28;20068;-59
2023/05/24 04:32:29;;;;;;;11.55;4.75;;;;;;;;;;5042889;28;20053;-58
2023/05/24 04:34:55;;;;;;;12.57;4.75;;;;;;;;;;5038089;28;20124;-59
2023/05/24 04:37:23;;;;;;;13.93;5.00;;;;;;;;;;5038773;28;20037;-59
2023/05/24 04:39:50;;;;;;;10.63;4.93;;;;;;;;;;5012435;28;20045;-59
2023/05/24 04:42:16;;;;;;;8.38;4.03;;;;;;;;;;5016204;28;20060;-59
2023/05/24 04:44:43;;;;;;;8.60;4.90;;;;;;;;;;5034467;28;20639;-59
2023/05/24 04:47:11;;;;;;;12.40;4.30;;;;;;;;;;5034295;28;20068;-58
2023/05/24 04:49:38;;;;;;;11.40;5.10;;;;;;;;;;5031781;28;20045;-59
2023/05/24 04:52:06;;;;;;;12.85;5.15;;;;;;;;;;5045057;28;20033;-58
2023/05/24 04:54:33;;;;;;;11.18;4.30;;;;;;;;;;5042861;28;20049;-59
2023/05/24 04:56:59;;;;;;;8.20;4.43;;;;;;;;;;5032147;28;20047;-59
2023/05/24 04:59:25;;;;;;;11.88;4.90;;;;;;;;;;5047337;28;20029;-59
2023/05/24 05:01:51;;;;;;;8.75;5.10;;;;;;;;;;5050533;28;20037;-58
2023/05/24 05:04:17;;;;;;;9.52;4.78;;;;;;;;;;5036614;28;20040;-58
2023/05/24 05:06:44;;;;;;;15.80;5.30;;;;;;;;;;5034927;28;20518;-59
2023/05/24 05:09:12;;;;;;;11.63;4.68;;;;;;;;;;5035227;28;20045;-59
2023/05/24 05:11:39;;;;;;;11.88;4.70;;;;;;;;;;5038541;28;20037;-57
2023/05/24 05:14:08;;;;;;;14.02;5.60;;;;;;;;;;5038221;28;20315;-58
2023/05/24 05:16:35;;;;;;;10.48;5.10;;;;;;;;;;5024643;28;20045;-58
2023/05/24 05:19:03;;;;;;;11.82;4.85;;;;;;;;;;5045273;28;20446;-57
2023/05/24 05:21:33;;;;;;;10.50;4.82;;;;;;;;;;5043003;28;20045;-58
2023/05/24 05:23:59;;;;;;;;;;;;;;;;;;5028993;28;20045;-57
2023/05/24 05:26:29;;;;;;;10.63;5.00;;;;;;;;;;5043962;28;19909;-58
2023/05/24 05:28:58;;;;;;;;;;;;;;;;;;5044566;28;20044;-58
2023/05/24 05:31:24;;;;;;;11.13;5.05;;;;;;;;;;5041979;28;19917;-58
2023/05/24 05:33:50;;;;;;;14.77;5.22;;;;;;;;;;5017882;28;20089;-58
2023/05/24 05:36:17;;;;;;;10.27;5.78;;;;;;;;;;5023139;28;20040;-57
2023/05/24 05:38:44;;;;;;;10.25;5.32;;;;;;;;;;5048080;28;20037;-58
2023/05/24 05:41:10;;;;;;;8.55;5.30;;;;;;;;;;5045754;28;20044;-58
2023/05/24 05:43:37;;;;;;;12.18;5.35;;;;;;;;;;5036024;28;20037;-57
2023/05/24 05:46:05;;;;;;;16.80;5.47;;;;;;;;;;5007680;28;20044;-57
2023/05/24 05:48:31;;;;;;;12.45;5.50;;;;;;;;;;5029543;28;20041;-57
2023/05/24 05:50:57;;;;;;;10.48;4.55;;;;;;;;;;5029394;28;20033;-58
2023/05/24 05:53:24;;;;;;;16.38;5.43;;;;;;;;;;5027187;28;20044;-58
2023/05/24 05:55:50;;;;;;;12.52;5.00;;;;;;;;;;5017929;28;20041;-58
2023/05/24 05:58:16;;;;;;;12.73;5.70;;;;;;;;;;5038897;28;20497;-58
2023/05/24 06:00:42;;;;;;;14.15;5.82;;;;;;;;;;5043253;28;20356;-58
2023/05/24 06:03:09;;;;;;;14.80;6.50;;;;;;;;;;5046377;28;20049;-58
2023/05/24 06:05:35;;;;;;;9.25;5.07;;;;;;;;;;5044962;28;20036;-58
2023/05/24 06:08:02;;;;;;;10.93;5.55;;;;;;;;;;5045881;28;20033;-58
2023/05/24 06:10:28;;;;;;;9.23;6.15;;;;;;;;;;5026460;28;20041;-58
2023/05/24 06:12:55;;;;;;;12.25;4.90;;;;;;;;;;5012612;28;20055;-58
2023/05/24 06:15:21;;;;;;;11.27;5.45;;;;;;;;;;5020668;28;20502;-57
2023/05/24 06:17:49;;;;;;;9.30;5.68;;;;;;;;;;5027899;28;20037;-58
2023/05/24 06:20:15;;;;;;;12.98;5.63;;;;;;;;;;5028829;28;20041;-58
2023/05/24 06:22:42;;;;;;;13.68;5.57;;;;;;;;;;5043833;28;20036;-58
2023/05/24 06:25:09;;;;;;;17.00;5.47;;;;;;;;;;5044639;28;20045;-58
2023/05/24 06:27:35;;;;;;;13.60;5.18;;;;;;;;;;5027428;28;20036;-58
2023/05/24 06:30:01;;;;;;;14.52;5.55;;;;;;;;;;5031661;28;20049;-58
2023/05/24 06:32:27;;;;;;;11.32;5.07;;;;;;;;;;5037200;28;20036;-58
2023/05/24 06:34:54;;;;;;;12.68;5.55;;;;;;;;;;5034220;28;20506;-58
2023/05/24 06:37:24;;;;;;;14.35;5.05;;;;;;;;;;5041267;28;20037;-58
2023/05/24 06:39:50;;;;;;;12.43;5.05;;;;;;;;;;5041960;28;20056;-58
2023/05/24 06:42:16;;;;;;;14.80;6.68;;;;;;;;;;5038326;28;20056;-58
2023/05/24 06:44:45;;;;;;;12.20;5.07;;;;;;;;;;5032960;28;20057;-58
2023/05/24 06:47:12;;;;;;;14.98;5.57;;;;;;;;;;5024264;28;20048;-58
2023/05/24 06:49:38;;;;;;;12.57;4.82;;;;;;;;;;5032353;28;20056;-58
2023/05/24 06:52:06;;;;;;;11.25;5.30;;;;;;;;;;5026893;28;20052;-58
2023/05/24 06:54:32;;;;;;;11.55;6.18;;;;;;;;;;5011899;28;20037;-57
2023/05/24 06:56:59;;;;;;;12.43;5.38;;;;;;;;;;5038676;28;20040;-58
2023/05/24 06:59:26;;;;;;;13.27;5.40;;;;;;;;;;5022301;28;20049;-58
2023/05/24 07:01:56;;;;;;;11.75;5.70;;;;;;;;;;5031902;28;20052;-58
2023/05/24 07:04:24;;;;;;;12.25;5.72;;;;;;;;;;5035027;28;20053;-58
2023/05/24 07:06:51;;;;;;;13.68;5.15;;;;;;;;;;5034423;28;20041;-58
2023/05/24 07:09:35;;;;;;;10.90;4.68;;;;;;;;;;5040213;28;20041;-58
2023/05/24 07:12:02;;;;;;;13.98;5.82;;;;;;;;;;5043441;28;20052;-58
2023/05/24 07:14:28;;;;;;;13.23;5.47;;;;;;;;;;5026587;28;20033;-58
2023/05/24 07:16:56;;;;;;;9.40;4.85;;;;;;;;;;5042172;28;20041;-58
2023/05/24 07:19:26;;;;;;;13.85;5.03;;;;;;;;;;5041672;28;20049;-58
2023/05/24 07:21:52;;;;;;;12.85;5.15;;;;;;;;;;5041214;28;20057;-58
2023/05/24 07:24:20;;;;;;;11.68;5.20;;;;;;;;;;5039008;28;20045;-58
2023/05/24 07:26:48;;;;;;;13.05;5.38;;;;;;;;;;5017090;28;20033;-58
2023/05/24 07:29:16;;;;;;;16.17;5.25;;;;;;;;;;5032375;28;20053;-58
2023/05/24 07:31:43;;;;;;;11.70;5.85;;;;;;;;;;5011974;28;20045;-58
2023/05/24 07:34:09;;;;;;;13.82;5.68;;;;;;;;;;5023934;28;20033;-58
2023/05/24 07:36:35;;;;;;;15.32;5.63;;;;;;;;;;5047303;28;20041;-58
2023/05/24 07:39:04;;;;;;;12.80;5.53;;;;;;;;;;5031383;28;20055;-58
2023/05/24 07:41:32;;;;;;;13.25;5.40;;;;;;;;;;5048702;28;20044;-58
2023/05/24 07:43:58;;;;;;;13.07;5.05;;;;;;;;;;5025190;28;20166;-58
2023/05/24 07:46:24;;;;;;;14.93;5.90;;;;;;;;;;5048526;28;20045;-58
2023/05/24 07:48:51;;;;;;;12.77;5.40;;;;;;;;;;5046793;28;20049;-57
2023/05/24 07:51:18;;;;;;;13.10;5.50;;;;;;;;;;5044366;28;20050;-57
2023/05/24 07:53:44;;;;;;;13.40;5.50;;;;;;;;;;5038042;28;20252;-58
2023/05/24 07:56:10;;;;;;;11.95;5.20;;;;;;;;;;5025196;28;20038;-58
2023/05/24 07:58:39;;;;;;;13.35;5.45;;;;;;;;;;5025467;28;20041;-58
2023/05/24 08:01:06;;;;;;;15.47;5.60;;;;;;;;;;5027522;28;20040;-59
2023/05/24 08:03:33;;;;;;;14.70;5.80;;;;;;;;;;5019440;28;20491;-57
2023/05/24 08:05:59;;;;;;;12.63;5.75;;;;;;;;;;5020368;28;20033;-57
2023/05/24 08:08:26;;;;;;;10.55;4.90;;;;;;;;;;5031606;28;20041;-57
2023/05/24 08:10:52;;;;;;;10.90;4.93;;;;;;;;;;5034378;28;20483;-57
2023/05/24 08:13:18;;;;;;;17.45;5.63;;;;;;;;;;5039853;28;20036;-57
2023/05/24 08:15:45;;;;;;;10.32;4.90;;;;;;;;;;5047810;28;20037;-57
2023/05/24 08:18:11;;;;;;;12.18;5.05;;;;;;;;;;5048006;28;20048;-58
2023/05/24 08:20:37;;;;;;;10.48;4.80;;;;;;;;;;5014178;28;20037;-58
2023/05/24 08:23:04;;;;;;;13.52;5.43;;;;;;;;;;5027105;28;20037;-57
2023/05/24 08:25:30;;;;;;;12.20;5.05;;;;;;;;;;5026387;28;20037;-58
2023/05/24 08:27:56;;;;;;;14.55;5.70;;;;;;;;;;5035587;28;20052;-58
2023/05/24 08:30:23;;;;;;;16.27;5.25;;;;;;;;;;5039696;28;20355;-58
2023/05/24 08:32:51;;;;;;;12.77;4.90;;;;;;;;;;5032557;28;20029;-58
2023/05/24 08:35:17;;;;;;;11.70;5.05;;;;;;;;;;5038876;28;20056;-57
2023/05/24 08:37:43;;;;;;;16.17;4.75;;;;;;;;;;5046928;28;20077;-57
2023/05/24 08:40:10;;;;;;;11.55;5.60;;;;;;;;;;5048124;28;20029;-58
2023/05/24 08:42:37;;;;;;;15.80;5.13;;;;;;;;;;5038413;28;20056;-58
2023/05/24 08:45:09;;;;;;;11.63;5.22;;;;;;;;;;5023661;28;20025;-59
2023/05/24 08:47:36;;;;;;;9.98;5.15;;;;;;;;;;5029539;28;20055;-57
2023/05/24 08:50:05;;;;;;;14.63;5.20;;;;;;;;;;5041817;28;20041;-59
2023/05/24 08:52:31;;;;;;;13.38;5.68;;;;;;;;;;5036520;28;20041;-57
2023/05/24 08:54:58;;;;;;;14.15;5.05;;;;;;;;;;5030818;28;20057;-58
2023/05/24 08:57:29;;;;;;;14.60;5.63;;;;;;;;;;5037440;28;20029;-57
2023/05/24 08:59:56;;;;;;;12.82;5.68;;;;;;;;;;5029746;28;20041;-58
2023/05/24 09:02:23;;;;;;;11.80;5.25;;;;;;;;;;5030817;28;20045;-58
2023/05/24 09:04:51;;;;;;;9.65;5.25;;;;;;;;;;5035238;28;20052;-58
2023/05/24 09:07:23;;;;;;;10.90;5.73;;;;;;;;;;5029297;28;20047;-58
2023/05/24 09:10:10;;;;;;;11.48;4.75;;;;;;;;;;5015927;28;20287;-58
2023/05/24 09:12:38;;;;;;;11.32;5.07;;;;;;;;;;5034831;28;20045;-57
2023/05/24 09:15:07;;;;;;;18.02;5.70;;;;;;;;;;5044866;28;20032;-58
2023/05/24 09:17:35;;;;;;;10.65;5.10;;;;;;;;;;5043735;28;20533;-58
2023/05/24 09:20:05;;;;;;;14.38;5.38;;;;;;;;;;5028429;28;20511;-58
2023/05/24 09:22:33;;;;;;;12.55;5.60;;;;;;;;;;5034866;28;20037;-59
2023/05/24 09:25:00;;;;;;;15.68;5.50;;;;;;;;;;5036079;28;20048;-59
2023/05/24 09:27:27;;;;;;;11.70;5.45;;;;;;;;;;5037925;28;20045;-59
2023/05/24 09:29:54;;;;;;;15.45;5.70;;;;;;;;;;5034285;28;20037;-59
2023/05/24 09:32:24;;;;;;;11.38;5.53;;;;;;;;;;5001954;28;20034;-58
2023/05/24 09:34:55;;;;;;;17.25;6.40;;;;;;;;;;5034517;28;20056;-59
2023/05/24 09:37:23;;;;;;;13.77;5.88;;;;;;;;;;5042544;28;20033;-59
2023/05/24 09:39:50;;;;;;;10.95;5.30;;;;;;;;;;5042020;28;20072;-58
2023/05/24 09:42:19;;;;;;;14.13;5.43;;;;;;;;;;5037891;28;20049;-58
2023/05/24 09:45:02;;;;;;;10.13;5.20;;;;;;;;;;5044768;28;20033;-59
2023/05/24 09:47:29;;;;;;;14.70;5.72;;;;;;;;;;5034757;28;20053;-58
2023/05/24 09:49:55;;;;;;;12.88;6.22;;;;;;;;;;5033219;28;20044;-57
2023/05/24 09:52:21;;;;;;;12.07;5.22;;;;;;;;;;5011116;28;20032;-57
2023/05/24 09:54:48;;;;;;;13.90;5.43;;;;;;;;;;5044469;28;20048;-58
2023/05/24 09:57:16;;;;;;;10.48;5.63;;;;;;;;;;5041429;28;20037;-58
2023/05/24 09:59:43;;;;;;;15.57;5.80;;;;;;;;;;5040070;28;20036;-58
2023/05/24 10:02:11;;;;;;;15.10;5.72;;;;;;;;;;5022616;28;20096;-58
2023/05/24 10:04:38;;;;;;;14.55;5.55;;;;;;;;;;5019085;28;20052;-58
2023/05/24 10:07:07;;;;;;;11.73;5.10;;;;;;;;;;5036476;28;20037;-57
2023/05/24 10:09:35;;;;;;;11.20;5.22;;;;;;;;;;5033064;28;20037;-58
2023/05/24 10:12:04;;;;;;;10.27;5.60;;;;;;;;;;5034904;28;20057;-58
2023/05/24 10:14:32;;;;;;;11.60;5.53;;;;;;;;;;5037534;28;20049;-58
2023/05/24 10:16:59;;;;;;;13.63;6.03;;;;;;;;;;5026589;28;20037;-58
2023/05/24 10:19:25;;;;;;;14.60;5.85;;;;;;;;;;4995559;28;20045;-57
2023/05/24 10:21:54;;;;;;;11.35;5.55;;;;;;;;;;5023481;28;20052;-57
2023/05/24 10:24:24;;;;;;;17.08;5.45;;;;;;;;;;5030440;28;20041;-56
2023/05/24 10:26:51;;;;;;;11.00;4.88;;;;;;;;;;5036561;28;20037;-58
2023/05/24 10:29:32;;;;;;;14.00;5.10;;;;;;;;;;5015490;28;20045;-57
2023/05/24 10:31:58;;;;;;;13.98;5.63;;;;;;;;;;5045028;28;20049;-58
2023/05/24 10:34:25;;;;;;;11.70;5.43;;;;;;;;;;5024208;28;20037;-57
2023/05/24 10:36:52;;;;;;;13.73;5.57;;;;;;;;;;5028176;28;20028;-59
2023/05/24 10:39:21;;;;;;;14.63;5.00;;;;;;;;;;5046770;28;20390;-59
2023/05/24 10:41:47;;;;;;;;;;;;;;;;;;5043708;28;20046;-57
2023/05/24 10:44:18;;;;;;;12.02;5.30;;;;;;;;;;5046511;28;19909;-59
2023/05/24 10:47:08;;;;;;;16.48;5.50;;;;;;;;;;5050293;28;20033;-59
2023/05/24 10:49:36;;;;;;;15.88;5.82;;;;;;;;;;5027645;28;20509;-59
2023/05/24 10:52:12;;;;;;;17.63;5.55;;;;;;;;;;5044310;28;20046;-59
2023/05/24 10:54:39;;;;;;;13.43;5.80;;;;;;;;;;5040006;28;20037;-59
2023/05/24 10:57:06;;;;;;;13.93;5.22;;;;;;;;;;5017805;28;20041;-59
2023/05/24 10:59:37;;;;;;;11.55;5.25;;;;;;;;;;5039152;28;20032;-59
2023/05/24 11:02:11;;;;;;;10.50;4.90;;;;;;;;;;5040879;28;20047;-59
2023/05/24 11:04:45;;;;;;;14.55;5.50;;;;;;;;;;5032837;28;20044;-59
2023/05/24 11:07:14;;;;;;;11.43;5.13;;;;;;;;;;5034205;28;20053;-59
2023/05/24 11:09:51;;;;;;;12.23;4.78;;;;;;;;;;5039727;28;20053;-59
2023/05/24 11:12:19;;;;;;;10.10;4.85;;;;;;;;;;5038713;28;20038;-58
2023/05/24 11:14:48;;;;;;;15.38;4.95;;;;;;;;;;5036700;28;20044;-59
2023/05/24 11:17:15;;;;;;;10.52;5.00;;;;;;;;;;5020753;28;20037;-58
2023/05/24 11:19:48;;;;;;;12.23;5.53;;;;;;;;;;5041316;28;20501;-59
2023/05/24 11:22:15;;;;;;;17.20;5.40;;;;;;;;;;5038460;28;20073;-59
2023/05/24 11:24:42;;;;;;;12.32;5.10;;;;;;;;;;5004325;28;20048;-59
2023/05/24 11:27:11;;;;;;;16.08;5.53;;;;;;;;;;5038059;28;20109;-59
2023/05/24 11:29:42;;;;;;;14.18;5.38;;;;;;;;;;5021588;28;20033;-59
2023/05/24 11:32:08;;;;;;;12.63;5.47;;;;;;;;;;5038406;28;20056;-59
2023/05/24 11:34:35;;;;;;;12.38;4.70;;;;;;;;;;5044589;28;20059;-59
2023/05/24 11:37:02;;;;;;;14.02;5.18;;;;;;;;;;5048533;28;20056;-59
2023/05/24 11:39:34;;;;;;;12.05;4.82;;;;;;;;;;5032187;28;20032;-59
2023/05/24 11:42:03;;;;;;;12.07;5.38;;;;;;;;;;5046031;28;20439;-60
2023/05/24 11:44:31;;;;;;;14.02;5.47;;;;;;;;;;5040981;28;20071;-59
2023/05/24 11:46:59;;;;;;;10.80;5.15;;;;;;;;;;5037300;28;20483;-59
2023/05/24 11:49:25;;;;;;;14.32;5.10;;;;;;;;;;5039111;28;20047;-60
2023/05/24 11:51:56;;;;;;;14.68;5.13;;;;;;;;;;5046589;28;20021;-59
2023/05/24 11:54:27;;;;;;;16.92;5.30;;;;;;;;;;5036542;28;20045;-58
2023/05/24 11:56:54;;;;;;;19.33;5.28;;;;;;;;;;5034032;28;20045;-58
2023/05/24 11:59:25;;;;;;;12.70;5.18;;;;;;;;;;5044809;28;20406;-58
2023/05/24 12:01:59;;;;;;;16.15;5.47;;;;;;;;;;5044158;28;20430;-56
2023/05/24 12:04:26;;;;;;;18.48;4.97;;;;;;;;;;5037974;28;20516;-57
2023/05/24 12:06:53;;;;;;;14.60;5.10;;;;;;;;;;5032524;28;20039;-58
2023/05/24 12:09:21;;;;;;;16.67;5.18;;;;;;;;;;5036317;28;20060;-58
2023/05/24 12:11:49;;;;;;;22.05;5.93;;;;;;;;;;5019748;28;20038;-59
2023/05/24 12:14:17;;;;;;;15.68;5.43;;;;;;;;;;5019345;28;20121;-59
2023/05/24 12:16:45;;;;;;;16.67;5.90;;;;;;;;;;5023350;28;20454;-59
2023/05/24 12:19:16;;;;;;;15.88;5.47;;;;;;;;;;5034747;28;20048;-59
2023/05/24 12:21:42;;;;;;;20.17;6.30;;;;;;;;;;5045602;28;20102;-59
2023/05/24 12:24:15;;;;;;;18.95;6.25;;;;;;;;;;5032004;28;20050;-59
2023/05/24 12:26:43;;;;;;;15.65;5.57;;;;;;;;;;5038524;28;20454;-59
2023/05/24 12:29:11;;;;;;;16.15;5.90;;;;;;;;;;5017970;28;20046;-59
2023/05/24 12:31:40;;;;;;;11.68;5.57;;;;;;;;;;5028921;28;20041;-60
2023/05/24 12:34:11;;;;;;;21.02;5.57;;;;;;;;;;5043844;28;20053;-60
2023/05/24 12:36:38;;;;;;;15.40;5.72;;;;;;;;;;5029435;28;20045;-59
2023/05/24 12:39:16;;;;;;;16.50;6.03;;;;;;;;;;5048107;28;20037;-59
2023/05/24 12:41:44;;;;;;;17.25;5.72;;;;;;;;;;5039589;28;20048;-59
2023/05/24 12:44:11;;;;;;;11.00;5.63;;;;;;;;;;5021904;28;20053;-60
2023/05/24 12:46:37;;;;;;;15.25;5.25;;;;;;;;;;5036895;28;20410;-59
2023/05/24 12:49:03;;;;;;;13.15;5.20;;;;;;;;;;5035773;28;20048;-59
2023/05/24 12:51:30;;;;;;;9.00;5.32;;;;;;;;;;5036722;28;20383;-60
2023/05/24 12:53:56;;;;;;;13.95;5.68;;;;;;;;;;5039778;28;20044;-59
2023/05/24 12:56:26;;;;;;;25.02;6.10;;;;;;;;;;5045099;28;20053;-60
2023/05/24 12:58:53;;;;;;;;;;;;;;;;;;5037546;28;20040;-60
2023/05/24 13:01:19;;;;;;;17.40;5.63;;;;;;;;;;5032862;28;19917;-60
2023/05/24 13:03:45;;;;;;;14.73;6.05;;;;;;;;;;5022401;28;20033;-60
2023/05/24 13:06:12;;;;;;;21.95;6.28;;;;;;;;;;5035749;28;20041;-59
2023/05/24 13:08:38;;;;;;;10.80;5.30;;;;;;;;;;5035863;28;20056;-60
2023/05/24 13:11:04;;;;;;;13.90;6.32;;;;;;;;;;5035896;28;20030;-60
2023/05/24 13:13:31;;;;;;;12.95;5.60;;;;;;;;;;5045834;28;20052;-60
2023/05/24 13:15:57;;;;;;;14.75;4.88;;;;;;;;;;5044373;28;20179;-60
2023/05/24 13:18:25;;;;;;;11.55;4.88;;;;;;;;;;5028789;28;20044;-60
2023/05/24 13:20:52;;;;;;;11.30;5.65;;;;;;;;;;5028631;28;20081;-61
2023/05/24 13:23:18;;;;;;;11.30;5.45;;;;;;;;;;5044715;28;20037;-60
2023/05/24 13:25:45;;;;;;;12.80;5.40;;;;;;;;;;5043499;28;20033;-60
2023/05/24 13:28:11;;;;;;;11.50;4.53;;;;;;;;;;5029904;28;20376;-60
2023/05/24 13:30:38;;;;;;;8.93;4.55;;;;;;;;;;5034226;28;20053;-61
2023/05/24 13:33:04;;;;;;;11.43;4.65;;;;;;;;;;5019840;28;20052;-59
2023/05/24 13:35:31;;;;;;;14.45;5.38;;;;;;;;;;5037072;28;20044;-60
2023/05/24 13:37:57;;;;;;;14.90;5.32;;;;;;;;;;5030473;28;20044;-60
2023/05/24 13:40:24;;;;;;;11.23;4.45;;;;;;;;;;5049917;28;20085;-59
2023/05/24 13:42:51;;;;;;;11.65;5.03;;;;;;;;;;5042201;28;20049;-59
2023/05/24 13:45:17;;;;;;;14.68;5.00;;;;;;;;;;5036610;28;20053;-60
2023/05/24 13:47:43;;;;;;;13.38;5.30;;;;;;;;;;5034018;28;20037;-60
2023/05/24 13:50:10;;;;;;;12.75;4.93;;;;;;;;;;5025401;28;20040;-60
2023/05/24 13:52:37;;;;;;;14.18;5.40;;;;;;;;;;5014897;28;20041;-60
2023/05/24 13:55:03;;;;;;;11.52;5.60;;;;;;;;;;5036027;28;20037;-60
2023/05/24 13:57:31;;;;;;;12.55;5.63;;;;;;;;;;5017801;28;20041;-60
2023/05/24 13:59:59;;;;;;;16.23;6.60;;;;;;;;;;5043134;28;20028;-60
2023/05/24 14:02:25;;;;;;;9.23;5.30;;;;;;;;;;5050144;28;20041;-60
2023/05/24 14:04:52;;;;;;;8.27;5.07;;;;;;;;;;5040651;28;20041;-60
2023/05/24 14:07:19;;;;;;;12.95;5.72;;;;;;;;;;5027624;28;20052;-61
2023/05/24 14:09:47;;;;;;;12.60;5.47;;;;;;;;;;5037204;28;20041;-58
2023/05/24 14:12:13;;;;;;;16.60;5.35;;;;;;;;;;5018392;28;20045;-61
2023/05/24 14:14:40;;;;;;;13.30;5.57;;;;;;;;;;5038561;28;20049;-60
2023/05/24 14:17:07;;;;;;;12.95;5.10;;;;;;;;;;5044536;28;20029;-60
2023/05/24 14:19:35;;;;;;;13.70;5.60;;;;;;;;;;5028324;28;20048;-60
2023/05/24 14:22:02;;;;;;;11.07;5.07;;;;;;;;;;5035930;28;20045;-60
2023/05/24 14:24:28;;;;;;;10.52;4.95;;;;;;;;;;5028328;28;20048;-60
2023/05/24 14:26:55;;;;;;;10.43;5.03;;;;;;;;;;5038582;28;20071;-61
2023/05/24 14:29:21;;;;;;;14.35;5.95;;;;;;;;;;5043917;28;20063;-60
2023/05/24 14:31:48;;;;;;;13.65;4.78;;;;;;;;;;5041721;28;20053;-60
2023/05/24 14:34:15;;;;;;;12.10;5.35;;;;;;;;;;5044726;28;20061;-60
2023/05/24 14:36:41;;;;;;;9.60;4.45;;;;;;;;;;5047619;28;20684;-60
2023/05/24 14:39:08;;;;;;;14.82;5.13;;;;;;;;;;5046857;28;20039;-60
2023/05/24 14:41:34;;;;;;;15.20;5.45;;;;;;;;;;5038065;28;20517;-60